Time;durP1;ratioP1;P1;durP2;ratioP2;P2;SDS_P1;SDS_P2;PMS_P1;PMS_P2;Temp;Humidity;BMP_temperature;BMP_pressure;BME280_temperature;BME280_humidity;BME280_pressure;Samples;Min_cycle;Max_cycle;Signal;HPM_P1;HPM_P2
2024/02/26 00:01:46;;;;;;;16.40;15.90;;;21.50;52.50;;;;;;4972654;28;20455;-68
2024/02/26 00:04:12;;;;;;;16.33;15.83;;;21.50;52.50;;;;;;4972925;28;20459;-67
2024/02/26 00:06:41;;;;;;;16.10;15.60;;;21.50;52.50;;;;;;4972805;28;20795;-67
2024/02/26 00:09:07;;;;;;;16.83;16.33;;;21.50;52.60;;;;;;4983036;28;20474;-67
2024/02/26 00:11:36;;;;;;;15.80;15.40;;;21.50;52.70;;;;;;4991846;28;20469;-67
2024/02/26 00:14:03;;;;;;;16.17;15.70;;;21.40;52.60;;;;;;4992092;28;20446;-67
2024/02/26 00:16:32;;;;;;;15.50;15.10;;;21.40;52.60;;;;;;4992223;28;20487;-67
2024/02/26 00:18:59;;;;;;;16.30;15.80;;;21.40;52.70;;;;;;4992080;28;20471;-66
2024/02/26 00:21:25;;;;;;;17.13;16.63;;;21.40;52.80;;;;;;4991760;28;20450;-67
2024/02/26 00:23:54;;;;;;;15.87;15.47;;;21.40;52.80;;;;;;4991404;28;20442;-66
2024/02/26 00:26:20;;;;;;;16.20;15.70;;;21.40;52.80;;;;;;4992212;28;20451;-67
2024/02/26 00:28:47;;;;;;;16.10;15.60;;;21.40;52.90;;;;;;4992226;28;20465;-67
2024/02/26 00:31:14;;;;;;;16.53;16.03;;;21.30;52.80;;;;;;4991672;28;20447;-67
2024/02/26 00:33:42;;;;;;;15.93;15.43;;;21.30;52.90;;;;;;4992172;28;20959;-67
2024/02/26 00:36:08;;;;;;;16.23;15.77;;;21.30;52.90;;;;;;4991922;28;20493;-66
2024/02/26 00:38:36;;;;;;;15.80;15.40;;;21.30;52.90;;;;;;4990298;28;20461;-67
2024/02/26 00:41:04;;;;;;;16.33;15.83;;;21.30;53.00;;;;;;4991522;28;20450;-67
2024/02/26 00:43:31;;;;;;;16.30;15.70;;;21.30;53.00;;;;;;4991932;28;20439;-66
2024/02/26 00:45:57;;;;;;;17.10;16.57;;;21.30;53.00;;;;;;4992218;28;20438;-67
2024/02/26 00:48:25;;;;;;;20.13;19.53;;;21.20;53.00;;;;;;4991951;28;20459;-67
2024/02/26 00:50:53;;;;;;;19.13;18.63;;;21.20;53.00;;;;;;4991442;28;20478;-66
2024/02/26 00:53:20;;;;;;;19.40;18.80;;;21.20;53.10;;;;;;4992135;28;20446;-67
2024/02/26 00:55:46;;;;;;;15.90;15.50;;;21.20;53.10;;;;;;4994003;28;20505;-67
2024/02/26 00:58:13;;;;;;;15.40;15.00;;;21.20;53.70;;;;;;4995399;28;20478;-67
2024/02/26 01:00:40;;;;;;;16.30;15.80;;;21.20;53.20;;;;;;4995269;28;20442;-67
2024/02/26 01:03:06;;;;;;;15.80;15.40;;;21.20;53.20;;;;;;4994285;28;20453;-67
2024/02/26 01:05:33;;;;;;;16.40;15.90;;;21.20;53.20;;;;;;4976033;28;20818;-67
2024/02/26 01:08:02;;;;;;;15.60;15.10;;;21.20;53.20;;;;;;4975862;28;20475;-67
2024/02/26 01:10:29;;;;;;;15.50;15.10;;;21.20;53.20;;;;;;4975509;28;21016;-67
2024/02/26 01:12:55;;;;;;;16.27;15.77;;;21.10;53.20;;;;;;4976963;28;20467;-67
2024/02/26 01:15:23;;;;;;;16.60;16.10;;;21.10;53.20;;;;;;4994583;28;20443;-67
2024/02/26 01:17:50;;;;;;;16.23;15.63;;;21.10;53.30;;;;;;4994990;28;20450;-67
2024/02/26 01:20:17;;;;;;;16.57;16.13;;;21.10;53.30;;;;;;4994535;28;20439;-67
2024/02/26 01:22:44;;;;;;;16.60;16.10;;;21.10;53.40;;;;;;4995067;28;20453;-67
2024/02/26 01:25:13;;;;;;;16.10;15.60;;;21.10;53.40;;;;;;4995154;28;20859;-67
2024/02/26 01:27:41;;;;;;;17.50;16.80;;;21.10;53.40;;;;;;4993784;28;20467;-67
2024/02/26 01:30:08;;;;;;;16.30;15.80;;;21.10;53.40;;;;;;4994283;28;20505;-67
2024/02/26 01:32:36;;;;;;;15.80;15.40;;;21.10;53.50;;;;;;4995035;28;20819;-67
2024/02/26 01:35:03;;;;;;;16.47;15.97;;;21.10;53.50;;;;;;4994718;28;20471;-67
2024/02/26 01:37:29;;;;;;;17.07;16.57;;;21.00;53.50;;;;;;4994571;28;20486;-67
2024/02/26 01:39:56;;;;;;;17.00;16.50;;;21.00;53.40;;;;;;4994501;28;20474;-67
2024/02/26 01:42:24;;;;;;;15.60;15.20;;;21.00;53.50;;;;;;4994985;28;20442;-67
2024/02/26 01:44:51;;;;;;;15.60;15.20;;;21.00;53.50;;;;;;4992471;28;20447;-67
2024/02/26 01:47:17;;;;;;;16.23;15.83;;;21.00;53.50;;;;;;4975062;28;20464;-67
2024/02/26 01:49:44;;;;;;;15.97;15.53;;;21.00;53.50;;;;;;4974830;28;20951;-67
2024/02/26 01:52:11;;;;;;;15.63;15.23;;;21.00;54.10;;;;;;4975168;28;20448;-67
2024/02/26 01:54:40;;;;;;;15.47;15.07;;;21.00;53.60;;;;;;4975010;28;20471;-67
2024/02/26 01:57:08;;;;;;;15.43;15.03;;;20.90;53.50;;;;;;4974874;28;20484;-67
2024/02/26 01:59:36;;;;;;;16.30;15.80;;;21.00;53.70;;;;;;4974574;28;20964;-67
2024/02/26 02:02:06;;;;;;;15.87;15.47;;;21.00;53.60;;;;;;4981080;28;20443;-67
2024/02/26 02:04:33;;;;;;;15.80;15.33;;;21.00;53.70;;;;;;4962904;28;20843;-67
2024/02/26 02:07:02;;;;;;;15.87;15.37;;;20.90;53.50;;;;;;4954693;28;20449;-67
2024/02/26 02:09:29;;;;;;;16.63;16.13;;;20.90;53.60;;;;;;4955476;28;20823;-67
2024/02/26 02:11:56;;;;;;;15.67;15.27;;;20.90;53.60;;;;;;4955347;28;20452;-67
2024/02/26 02:14:23;;;;;;;15.70;15.30;;;20.90;53.50;;;;;;4955242;28;20806;-67
2024/02/26 02:16:51;;;;;;;16.10;15.60;;;20.90;53.60;;;;;;4955534;28;20485;-67
2024/02/26 02:19:18;;;;;;;16.57;16.07;;;20.90;53.60;;;;;;4974540;28;20831;-67
2024/02/26 02:21:46;;;;;;;15.70;15.30;;;20.90;53.70;;;;;;4974304;28;20452;-67
2024/02/26 02:24:13;;;;;;;15.30;14.90;;;20.90;54.20;;;;;;4974389;28;20451;-67
2024/02/26 02:26:40;;;;;;;16.30;15.80;;;20.90;53.70;;;;;;4974550;28;20436;-67
2024/02/26 02:29:09;;;;;;;16.30;15.80;;;20.90;53.70;;;;;;4974270;28;20463;-67
2024/02/26 02:31:36;;;;;;;16.10;15.60;;;20.80;53.70;;;;;;4973935;28;20447;-67
2024/02/26 02:34:02;;;;;;;15.30;14.90;;;20.90;53.70;;;;;;4979921;28;20948;-67
2024/02/26 02:36:29;;;;;;;14.83;14.43;;;20.80;53.70;;;;;;4992085;28;20482;-67
2024/02/26 02:38:57;;;;;;;15.90;15.50;;;20.90;53.80;;;;;;4993719;28;20467;-67
2024/02/26 02:41:26;;;;;;;16.20;15.70;;;20.80;53.70;;;;;;4993145;28;20465;-67
2024/02/26 02:43:53;;;;;;;16.17;15.67;;;20.80;53.70;;;;;;4993631;28;20451;-67
2024/02/26 02:46:19;;;;;;;15.97;15.47;;;20.80;53.70;;;;;;4993670;28;20453;-67
2024/02/26 02:48:46;;;;;;;16.60;16.10;;;20.80;53.70;;;;;;4993212;28;20462;-67
2024/02/26 02:51:13;;;;;;;15.20;14.80;;;20.90;53.80;;;;;;4981998;28;21132;-67
2024/02/26 02:53:39;;;;;;;15.90;15.50;;;20.80;53.80;;;;;;4973945;28;20455;-67
2024/02/26 02:56:08;;;;;;;16.00;15.50;;;20.80;53.90;;;;;;4974066;28;20440;-67
2024/02/26 02:58:34;;;;;;;15.80;15.40;;;20.80;53.90;;;;;;4973784;28;20888;-67
2024/02/26 03:01:01;;;;;;;15.70;15.30;;;20.80;53.90;;;;;;4973446;28;20452;-67
2024/02/26 03:03:28;;;;;;;16.33;15.83;;;20.80;53.90;;;;;;4973900;28;20447;-67
2024/02/26 03:05:56;;;;;;;16.30;15.80;;;20.80;53.90;;;;;;4973711;28;20454;-67
2024/02/26 03:08:23;;;;;;;15.97;15.57;;;20.80;54.00;;;;;;4990950;28;20463;-67
2024/02/26 03:10:50;;;;;;;16.40;15.90;;;20.80;54.00;;;;;;4992639;28;20449;-67
2024/02/26 03:13:18;;;;;;;15.60;15.20;;;20.70;53.90;;;;;;4993297;28;20443;-67
2024/02/26 03:15:45;;;;;;;16.13;15.63;;;20.80;54.00;;;;;;4980703;28;20446;-67
2024/02/26 03:18:12;;;;;;;17.43;16.93;;;20.80;54.00;;;;;;4972400;28;20483;-67
2024/02/26 03:20:38;;;;;;;16.87;16.27;;;20.80;54.00;;;;;;4973297;28;20447;-67
2024/02/26 03:23:05;;;;;;;16.60;16.10;;;20.70;53.90;;;;;;4974699;28;20455;-67
2024/02/26 03:25:32;;;;;;;16.97;16.47;;;20.80;54.00;;;;;;4973553;28;20451;-67
2024/02/26 03:27:58;;;;;;;15.30;14.90;;;20.70;53.90;;;;;;4973245;28;20468;-67
2024/02/26 03:30:27;;;;;;;15.83;15.40;;;20.70;53.90;;;;;;4973013;28;20440;-67
2024/02/26 03:32:54;;;;;;;16.20;15.70;;;20.70;53.90;;;;;;4973351;28;20814;-67
2024/02/26 03:35:20;;;;;;;16.73;16.23;;;20.70;53.90;;;;;;4973314;28;20452;-67
2024/02/26 03:37:50;;;;;;;16.33;15.93;;;20.70;54.00;;;;;;4973095;28;20560;-67
2024/02/26 03:40:18;;;;;;;15.93;15.53;;;20.70;54.00;;;;;;4981677;28;20469;-67
2024/02/26 03:42:45;;;;;;;17.17;16.67;;;20.70;54.00;;;;;;4992452;28;20969;-67
2024/02/26 03:45:12;;;;;;;17.27;16.77;;;20.70;54.00;;;;;;4992437;28;20446;-67
2024/02/26 03:47:40;;;;;;;17.10;16.60;;;20.70;54.10;;;;;;4992370;28;20466;-67
2024/02/26 03:50:08;;;;;;;16.20;15.70;;;20.70;54.00;;;;;;4992271;28;20443;-67
2024/02/26 03:52:35;;;;;;;16.20;15.70;;;20.70;54.10;;;;;;4992406;28;20446;-67
2024/02/26 03:55:01;;;;;;;16.60;16.10;;;20.80;54.20;;;;;;4992413;28;20855;-67
2024/02/26 03:57:28;;;;;;;17.00;16.50;;;20.70;54.10;;;;;;4990623;28;21085;-67
2024/02/26 03:59:55;;;;;;;16.60;16.10;;;20.70;54.10;;;;;;4992250;28;20450;-67
2024/02/26 04:02:22;;;;;;;16.83;16.33;;;20.70;54.10;;;;;;4992225;28;20451;-67
2024/02/26 04:04:50;;;;;;;16.13;15.63;;;20.70;54.10;;;;;;4992277;28;20446;-67
2024/02/26 04:07:17;;;;;;;17.27;16.70;;;20.70;54.10;;;;;;4992159;28;20844;-67
2024/02/26 04:09:44;;;;;;;17.17;16.67;;;20.70;54.10;;;;;;4991928;28;20526;-67
2024/02/26 04:12:11;;;;;;;16.80;16.30;;;20.70;54.10;;;;;;4990603;28;20824;-67
2024/02/26 04:14:37;;;;;;;16.63;16.13;;;20.70;54.10;;;;;;4992296;28;20447;-67
2024/02/26 04:17:04;;;;;;;17.00;16.50;;;20.70;54.10;;;;;;4992222;28;20490;-67
2024/02/26 04:19:31;;;;;;;17.00;16.50;;;20.70;54.10;;;;;;4991737;28;20451;-67
2024/02/26 04:22:00;;;;;;;17.30;16.70;;;20.70;54.10;;;;;;4978291;28;20444;-67
2024/02/26 04:24:27;;;;;;;17.20;16.70;;;20.70;54.10;;;;;;4972877;28;20514;-67
2024/02/26 04:26:53;;;;;;;16.77;16.27;;;20.70;54.10;;;;;;4972867;28;20447;-67
2024/02/26 04:29:20;;;;;;;17.60;17.10;;;20.70;54.10;;;;;;4975668;28;20443;-68
2024/02/26 04:31:47;;;;;;;16.93;16.43;;;20.70;54.10;;;;;;4976372;28;20475;-68
2024/02/26 04:34:14;;;;;;;17.13;16.63;;;20.70;54.10;;;;;;4996006;28;20451;-68
2024/02/26 04:36:41;;;;;;;16.73;16.23;;;20.70;54.10;;;;;;4996031;28;20438;-68
2024/02/26 04:39:11;;;;;;;17.80;17.20;;;20.70;54.10;;;;;;4995638;28;20470;-68
2024/02/26 04:41:37;;;;;;;17.37;16.87;;;20.70;54.10;;;;;;4995485;28;20442;-68
2024/02/26 04:44:04;;;;;;;17.37;16.87;;;20.70;54.10;;;;;;4995966;28;20453;-67
2024/02/26 04:46:31;;;;;;;17.30;16.80;;;20.70;54.10;;;;;;4992251;28;20445;-67
2024/02/26 04:48:58;;;;;;;17.30;16.80;;;20.70;54.10;;;;;;4983463;28;20832;-68
2024/02/26 04:51:25;;;;;;;17.47;16.87;;;20.70;54.10;;;;;;4995296;28;20455;-67
2024/02/26 04:53:53;;;;;;;18.07;17.57;;;20.70;54.10;;;;;;4995496;28;20447;-68
2024/02/26 04:56:21;;;;;;;17.80;17.30;;;20.70;54.10;;;;;;4995483;28;20447;-68
2024/02/26 04:58:48;;;;;;;17.27;16.77;;;20.70;54.10;;;;;;4995218;28;20884;-68
2024/02/26 05:01:15;;;;;;;22.87;22.17;;;20.70;54.10;;;;;;4995004;28;20443;-68
2024/02/26 05:03:42;;;;;;;22.83;22.13;;;20.70;54.10;;;;;;4993933;28;20513;-68
2024/02/26 05:06:09;;;;;;;18.97;18.37;;;20.70;54.10;;;;;;4995339;28;20439;-68
2024/02/26 05:08:38;;;;;;;17.67;17.17;;;20.70;54.10;;;;;;4995234;28;20466;-67
2024/02/26 05:11:05;;;;;;;18.20;17.60;;;20.70;54.10;;;;;;4994839;28;20806;-68
2024/02/26 05:13:33;;;;;;;18.30;17.70;;;20.70;54.20;;;;;;4995133;28;20451;-68
2024/02/26 05:16:00;;;;;;;18.33;17.73;;;20.70;54.10;;;;;;4995101;28;20450;-68
2024/02/26 05:18:26;;;;;;;18.17;17.57;;;20.70;54.20;;;;;;4992159;28;20577;-68
2024/02/26 05:20:53;;;;;;;18.57;17.97;;;20.70;54.10;;;;;;4988785;28;20447;-68
2024/02/26 05:23:20;;;;;;;18.30;17.80;;;20.70;54.10;;;;;;4975840;28;20436;-68
2024/02/26 05:25:47;;;;;;;18.30;17.70;;;20.70;54.10;;;;;;4975470;28;20455;-68
2024/02/26 05:28:15;;;;;;;17.97;17.47;;;20.70;54.20;;;;;;4975441;28;20471;-68
2024/02/26 05:30:43;;;;;;;17.60;16.97;;;20.70;54.20;;;;;;4975291;28;20444;-68
2024/02/26 05:33:10;;;;;;;18.20;17.70;;;20.70;54.20;;;;;;4975657;28;20439;-68
2024/02/26 05:35:36;;;;;;;18.47;17.87;;;20.70;54.20;;;;;;4976565;28;20825;-68
2024/02/26 05:38:03;;;;;;;18.87;18.27;;;20.70;54.20;;;;;;4975550;28;20487;-68
2024/02/26 05:40:30;;;;;;;18.20;17.60;;;20.70;54.20;;;;;;4974022;28;20819;-68
2024/02/26 05:42:57;;;;;;;18.33;17.73;;;20.70;54.20;;;;;;4975217;28;20472;-68
2024/02/26 05:45:24;;;;;;;17.50;17.00;;;20.70;54.20;;;;;;4975264;28;20933;-68
2024/02/26 05:47:52;;;;;;;18.10;17.50;;;20.80;54.40;;;;;;4975385;28;20463;-68
2024/02/26 05:50:18;;;;;;;21.23;20.53;;;20.80;54.40;;;;;;4974734;28;20448;-68
2024/02/26 05:52:45;;;;;;;18.97;18.37;;;20.80;54.40;;;;;;4976165;28;20446;-68
2024/02/26 05:55:12;;;;;;;19.10;18.30;;;20.80;54.50;;;;;;4975169;28;20444;-68
2024/02/26 05:57:39;;;;;;;18.40;17.70;;;20.80;54.50;;;;;;4975021;28;20491;-68
2024/02/26 06:00:07;;;;;;;19.63;18.40;;;20.80;54.70;;;;;;4974476;28;20944;-68
2024/02/26 06:02:34;;;;;;;22.03;19.93;;;20.80;54.90;;;;;;4974885;28;20440;-68
2024/02/26 06:05:02;;;;;;;20.70;19.50;;;20.80;57.90;;;;;;4975050;28;20471;-69
2024/02/26 06:07:29;;;;;;;22.23;20.43;;;20.80;59.40;;;;;;4974702;28;20478;-69
2024/02/26 06:09:56;;;;;;;22.10;19.93;;;20.90;59.30;;;;;;4975156;28;20444;-69
2024/02/26 06:12:23;;;;;;;21.80;20.30;;;20.90;59.30;;;;;;4974896;28;20436;-69
2024/02/26 06:14:50;;;;;;;20.57;19.50;;;20.90;59.30;;;;;;4974702;28;20539;-69
2024/02/26 06:17:16;;;;;;;21.00;19.37;;;20.90;59.10;;;;;;4974432;28;20467;-69
2024/02/26 06:19:43;;;;;;;20.40;19.50;;;20.90;58.90;;;;;;4974127;28;20443;-69
2024/02/26 06:22:11;;;;;;;20.87;19.60;;;20.90;59.00;;;;;;4974689;28;20809;-69
2024/02/26 06:24:38;;;;;;;20.03;19.10;;;21.00;59.10;;;;;;4979229;28;20439;-69
2024/02/26 06:27:05;;;;;;;20.10;18.90;;;21.00;59.20;;;;;;4993714;28;20804;-70
2024/02/26 06:29:31;;;;;;;21.47;19.50;;;21.00;59.50;;;;;;4993290;28;20435;-66
2024/02/26 06:31:58;;;;;;;19.80;19.00;;;21.00;61.10;;;;;;4993892;28;20469;-66
2024/02/26 06:34:25;;;;;;;20.83;19.87;;;21.00;61.80;;;;;;4982808;28;20435;-66
2024/02/26 06:36:52;;;;;;;19.70;18.90;;;21.10;61.60;;;;;;4993481;28;20443;-66
2024/02/26 06:39:20;;;;;;;20.63;19.43;;;21.10;61.30;;;;;;4993468;28;21038;-66
2024/02/26 06:41:47;;;;;;;19.90;19.00;;;21.20;61.10;;;;;;4993336;28;20446;-66
2024/02/26 06:44:14;;;;;;;19.20;18.20;;;21.20;60.70;;;;;;4993297;28;20498;-66
2024/02/26 06:46:41;;;;;;;18.40;17.60;;;21.20;60.30;;;;;;4993307;28;20936;-66
2024/02/26 06:49:07;;;;;;;20.37;19.07;;;21.20;60.00;;;;;;4993239;28;20539;-66
2024/02/26 06:51:34;;;;;;;18.83;18.17;;;21.30;59.80;;;;;;4992725;28;20443;-66
2024/02/26 06:54:01;;;;;;;19.33;18.33;;;21.30;59.70;;;;;;4993151;28;20446;-66
2024/02/26 06:56:29;;;;;;;20.20;18.80;;;21.30;59.50;;;;;;4993327;28;20894;-66
2024/02/26 06:58:55;;;;;;;19.70;19.00;;;21.30;59.30;;;;;;4992975;28;20482;-66
2024/02/26 07:01:22;;;;;;;19.90;18.90;;;21.30;59.20;;;;;;4992946;28;20480;-66
2024/02/26 07:03:49;;;;;;;20.90;19.27;;;21.30;59.00;;;;;;4993155;28;20453;-66
2024/02/26 07:06:15;;;;;;;19.33;18.40;;;21.30;58.90;;;;;;4993308;28;20443;-66
2024/02/26 07:08:42;;;;;;;19.57;18.77;;;21.40;58.80;;;;;;4993133;28;20984;-67
2024/02/26 07:11:09;;;;;;;18.40;17.80;;;21.40;58.70;;;;;;4992527;28;20450;-67
2024/02/26 07:13:37;;;;;;;20.83;19.90;;;21.40;58.60;;;;;;4992869;28;20482;-67
2024/02/26 07:16:05;;;;;;;19.73;18.83;;;21.40;58.40;;;;;;4992962;28;20438;-68
2024/02/26 07:18:31;;;;;;;19.43;18.63;;;21.40;58.30;;;;;;4992612;28;20483;-68
2024/02/26 07:20:58;;;;;;;19.33;18.00;;;21.40;58.20;;;;;;4992428;28;20462;-67
2024/02/26 07:23:25;;;;;;;19.97;18.87;;;21.50;58.10;;;;;;4992906;28;20955;-67
2024/02/26 07:25:52;;;;;;;19.90;19.10;;;21.40;58.00;;;;;;4992648;28;20466;-67
2024/02/26 07:28:19;;;;;;;19.47;18.77;;;21.50;57.90;;;;;;4992491;28;20470;-67
2024/02/26 07:30:47;;;;;;;19.40;18.63;;;21.50;57.80;;;;;;4992224;28;20450;-67
2024/02/26 07:33:14;;;;;;;19.60;18.90;;;21.40;57.60;;;;;;4992563;28;20447;-67
2024/02/26 07:35:41;;;;;;;20.27;19.47;;;21.50;57.60;;;;;;4992411;28;20469;-67
2024/02/26 07:38:07;;;;;;;18.53;17.93;;;21.50;57.50;;;;;;4992554;28;20486;-67
2024/02/26 07:40:34;;;;;;;19.00;18.30;;;21.40;57.40;;;;;;4992104;28;20446;-67
2024/02/26 07:43:01;;;;;;;19.70;19.00;;;21.50;57.30;;;;;;4992576;28;20451;-66
2024/02/26 07:45:27;;;;;;;19.47;18.77;;;21.50;57.20;;;;;;4992384;28;20447;-67
2024/02/26 07:47:55;;;;;;;19.50;18.70;;;21.50;57.10;;;;;;4992272;28;20826;-67
2024/02/26 07:50:22;;;;;;;19.70;18.90;;;21.50;57.00;;;;;;4991994;28;20439;-66
2024/02/26 07:52:51;;;;;;;20.50;19.60;;;21.50;56.90;;;;;;4992264;28;20450;-67
2024/02/26 07:55:18;;;;;;;20.03;19.33;;;21.50;56.80;;;;;;4992444;28;20451;-66
2024/02/26 07:57:45;;;;;;;19.63;19.00;;;21.50;56.70;;;;;;4992020;28;21059;-66
2024/02/26 08:00:16;;;;;;;19.87;19.13;;;21.50;56.70;;;;;;4991838;28;20473;-66
2024/02/26 08:02:43;;;;;;;19.80;19.00;;;21.50;56.60;;;;;;4992151;28;20793;-67
2024/02/26 08:05:11;;;;;;;20.23;19.43;;;21.50;56.50;;;;;;4991760;28;20561;-66
2024/02/26 08:07:38;;;;;;;19.77;18.97;;;21.50;56.40;;;;;;4992028;28;21011;-66
2024/02/26 08:10:05;;;;;;;19.60;18.90;;;21.50;56.30;;;;;;4991769;28;20443;-67
2024/02/26 08:12:32;;;;;;;19.20;18.50;;;21.50;56.20;;;;;;4992081;28;20820;-67
2024/02/26 08:14:59;;;;;;;19.93;19.03;;;21.50;56.10;;;;;;4992052;28;20447;-66
2024/02/26 08:17:27;;;;;;;20.10;19.40;;;21.50;56.10;;;;;;4992049;28;20459;-67
2024/02/26 08:19:53;;;;;;;19.20;18.50;;;21.50;56.00;;;;;;4991664;28;20863;-66
2024/02/26 08:22:21;;;;;;;20.77;20.03;;;21.50;55.90;;;;;;4991929;28;20446;-66
2024/02/26 08:24:48;;;;;;;20.73;20.03;;;21.50;55.80;;;;;;4992004;28;20940;-66
2024/02/26 08:27:15;;;;;;;19.50;18.80;;;21.50;55.80;;;;;;4991796;28;20478;-66
2024/02/26 08:29:41;;;;;;;20.50;19.70;;;21.50;55.80;;;;;;4991528;28;20753;-67
2024/02/26 08:32:08;;;;;;;20.37;19.50;;;21.50;55.70;;;;;;4992035;28;20526;-66
2024/02/26 08:34:35;;;;;;;21.00;20.10;;;21.60;55.70;;;;;;4991853;28;20462;-66
2024/02/26 08:37:02;;;;;;;20.73;19.93;;;21.50;55.50;;;;;;4991803;28;20442;-67
2024/02/26 08:39:30;;;;;;;21.13;20.43;;;21.50;55.40;;;;;;4991945;28;20471;-66
2024/02/26 08:41:56;;;;;;;20.50;19.80;;;21.60;55.50;;;;;;4991804;28;20439;-66
2024/02/26 08:44:23;;;;;;;20.30;19.50;;;21.50;55.30;;;;;;4991753;28;20944;-66
2024/02/26 08:46:50;;;;;;;20.70;19.90;;;21.50;55.30;;;;;;4991745;28;20454;-66
2024/02/26 08:49:17;;;;;;;20.43;19.73;;;21.50;55.20;;;;;;4991687;28;20952;-67
2024/02/26 08:51:45;;;;;;;19.13;18.53;;;21.50;55.20;;;;;;4991229;28;20443;-66
2024/02/26 08:54:11;;;;;;;20.50;19.73;;;21.60;55.20;;;;;;4991856;28;20880;-66
2024/02/26 08:56:39;;;;;;;18.97;18.27;;;21.50;55.10;;;;;;4991706;28;20864;-66
2024/02/26 08:59:06;;;;;;;19.83;19.13;;;21.60;55.60;;;;;;4991488;28;20498;-66
2024/02/26 09:01:33;;;;;;;19.70;19.10;;;21.50;55.00;;;;;;4991306;28;20451;-66
2024/02/26 09:04:00;;;;;;;21.03;20.30;;;21.50;54.90;;;;;;4991719;28;20475;-66
2024/02/26 09:06:27;;;;;;;19.50;18.80;;;21.60;55.00;;;;;;4991605;28;20446;-66
2024/02/26 09:08:53;;;;;;;21.23;20.13;;;21.50;54.80;;;;;;4991707;28;20474;-66
2024/02/26 09:11:20;;;;;;;19.73;19.00;;;21.50;54.80;;;;;;4991468;28;20443;-66
2024/02/26 09:13:48;;;;;;;20.67;19.87;;;21.50;54.70;;;;;;4991668;28;20466;-66
2024/02/26 09:16:15;;;;;;;20.50;19.80;;;21.50;54.70;;;;;;4993179;28;20855;-66
2024/02/26 09:18:41;;;;;;;20.60;19.90;;;21.50;54.60;;;;;;4994828;28;20581;-66
2024/02/26 09:21:08;;;;;;;19.70;19.00;;;21.50;54.60;;;;;;4994713;28;20446;-66
2024/02/26 09:23:35;;;;;;;19.63;18.83;;;21.50;54.60;;;;;;4995192;28;20975;-66
2024/02/26 09:26:02;;;;;;;20.60;19.90;;;21.50;54.50;;;;;;4994798;28;20443;-66
2024/02/26 09:28:31;;;;;;;20.20;19.47;;;21.50;54.50;;;;;;4994792;28;20458;-66
2024/02/26 09:30:59;;;;;;;19.20;18.60;;;21.50;54.90;;;;;;4994380;28;20454;-66
2024/02/26 09:33:26;;;;;;;19.97;19.30;;;21.50;54.40;;;;;;4994720;28;20537;-65
2024/02/26 09:35:53;;;;;;;19.40;18.80;;;21.50;54.30;;;;;;4994718;28;20443;-66
2024/02/26 09:38:19;;;;;;;20.70;19.70;;;21.50;54.30;;;;;;4994461;28;20463;-66
2024/02/26 09:40:46;;;;;;;18.00;17.43;;;21.50;54.30;;;;;;4994246;28;20815;-66
2024/02/26 09:43:15;;;;;;;20.13;19.30;;;21.50;54.30;;;;;;4994574;28;20445;-66
2024/02/26 09:45:43;;;;;;;20.00;19.40;;;21.50;54.20;;;;;;4994412;28;20475;-66
2024/02/26 09:48:13;;;;;;;20.20;19.40;;;21.50;54.20;;;;;;4994403;28;20462;-66
2024/02/26 09:50:41;;;;;;;20.23;19.53;;;21.50;54.10;;;;;;4994391;28;20808;-66
2024/02/26 09:53:10;;;;;;;20.63;19.93;;;21.50;54.10;;;;;;4994332;28;20940;-66
2024/02/26 09:55:36;;;;;;;19.37;18.77;;;21.50;54.00;;;;;;4994350;28;20470;-66
2024/02/26 09:58:07;;;;;;;19.80;19.20;;;21.50;54.00;;;;;;4994335;28;20685;-66
2024/02/26 10:00:39;;;;;;;21.47;20.67;;;21.50;54.00;;;;;;4993819;28;20573;-66
2024/02/26 10:03:07;;;;;;;20.17;19.47;;;21.50;53.90;;;;;;4994247;28;20442;-66
2024/02/26 10:05:36;;;;;;;20.53;19.83;;;21.40;53.80;;;;;;4994095;28;20443;-66
2024/02/26 10:08:03;;;;;;;22.40;21.60;;;21.40;53.80;;;;;;4993988;28;20470;-66
2024/02/26 10:10:31;;;;;;;21.07;20.37;;;21.40;53.80;;;;;;4993705;28;20466;-66
2024/02/26 10:12:59;;;;;;;21.57;20.87;;;21.40;53.80;;;;;;4994040;28;20454;-65
2024/02/26 10:15:26;;;;;;;21.73;20.93;;;21.40;53.70;;;;;;4993952;28;20871;-66
2024/02/26 10:17:52;;;;;;;20.37;19.67;;;21.40;53.70;;;;;;4993893;28;20463;-66
2024/02/26 10:20:21;;;;;;;21.37;20.60;;;21.40;53.70;;;;;;4993701;28;20479;-66
2024/02/26 10:22:50;;;;;;;20.93;20.23;;;21.40;53.60;;;;;;4993818;28;20454;-65
2024/02/26 10:25:17;;;;;;;19.30;18.70;;;21.40;53.60;;;;;;4993740;28;20479;-66
2024/02/26 10:27:44;;;;;;;20.40;19.70;;;21.40;53.60;;;;;;4993157;28;20469;-66
2024/02/26 10:30:22;;;;;;;20.90;20.20;;;21.40;53.60;;;;;;4993329;28;20439;-66
2024/02/26 10:32:50;;;;;;;20.23;19.53;;;21.40;53.50;;;;;;4993867;28;20439;-66
2024/02/26 10:35:18;;;;;;;21.13;20.43;;;21.40;53.50;;;;;;4993640;28;20447;-66
2024/02/26 10:37:45;;;;;;;21.00;20.27;;;21.40;53.50;;;;;;4993353;28;20534;-66
2024/02/26 10:40:14;;;;;;;20.53;19.83;;;21.40;53.50;;;;;;4993105;28;20829;-66
2024/02/26 10:42:41;;;;;;;20.47;19.60;;;21.40;53.40;;;;;;4993677;28;20475;-66
2024/02/26 10:45:09;;;;;;;20.13;19.43;;;21.30;53.40;;;;;;4993466;28;20451;-65
2024/02/26 10:47:36;;;;;;;19.93;19.23;;;21.30;53.30;;;;;;4993308;28;20498;-66
2024/02/26 10:50:04;;;;;;;20.53;19.73;;;21.30;53.30;;;;;;4992962;28;20794;-66
2024/02/26 10:52:33;;;;;;;21.23;20.50;;;21.30;53.30;;;;;;4993199;28;20454;-66
2024/02/26 10:55:01;;;;;;;20.23;19.53;;;21.30;53.30;;;;;;4993235;28;21011;-66
2024/02/26 10:57:32;;;;;;;20.57;19.87;;;21.30;53.30;;;;;;4993090;28;20475;-66
2024/02/26 11:00:00;;;;;;;21.00;20.10;;;21.30;53.30;;;;;;4992796;28;20489;-65
2024/02/26 11:02:27;;;;;;;20.43;19.73;;;21.30;53.30;;;;;;4993001;28;20808;-66
2024/02/26 11:04:54;;;;;;;21.03;20.23;;;21.30;53.30;;;;;;4993065;28;20443;-66
2024/02/26 11:07:23;;;;;;;22.20;21.40;;;21.30;53.20;;;;;;4992915;28;20481;-66
2024/02/26 11:09:52;;;;;;;20.23;19.53;;;21.30;53.20;;;;;;4992606;28;20443;-66
2024/02/26 11:12:19;;;;;;;21.00;20.20;;;21.30;53.20;;;;;;4992968;28;20509;-66
2024/02/26 11:14:48;;;;;;;20.60;19.90;;;21.20;53.10;;;;;;4992836;28;20451;-66
2024/02/26 11:17:17;;;;;;;19.63;19.03;;;21.20;53.20;;;;;;4992768;28;20525;-65
2024/02/26 11:19:45;;;;;;;19.80;19.20;;;21.20;53.20;;;;;;4992324;28;20641;-67
2024/02/26 11:22:12;;;;;;;20.77;20.07;;;21.20;53.20;;;;;;4992606;28;20446;-66
2024/02/26 11:24:41;;;;;;;20.83;20.13;;;21.20;53.10;;;;;;4992707;28;20936;-66
2024/02/26 11:27:11;;;;;;;20.03;19.37;;;21.20;53.10;;;;;;4992640;28;20443;-66
2024/02/26 11:29:44;;;;;;;20.23;19.60;;;21.20;53.10;;;;;;4992228;28;20916;-66
2024/02/26 11:32:12;;;;;;;20.77;20.07;;;21.20;53.10;;;;;;4992707;28;20447;-66
2024/02/26 11:34:39;;;;;;;20.43;19.83;;;21.20;53.10;;;;;;4992560;28;20450;-66
2024/02/26 11:37:14;;;;;;;20.27;19.57;;;21.20;53.10;;;;;;4992244;28;20447;-66
2024/02/26 11:39:41;;;;;;;20.17;19.47;;;21.20;53.10;;;;;;4991510;28;20478;-66
2024/02/26 11:42:10;;;;;;;20.93;20.23;;;21.10;53.00;;;;;;4992678;28;20476;-66
2024/02/26 11:44:37;;;;;;;20.63;19.93;;;21.20;53.00;;;;;;4992425;28;20972;-66
2024/02/26 11:47:18;;;;;;;20.10;19.50;;;21.20;53.00;;;;;;4992231;28;20446;-66
2024/02/26 11:49:45;;;;;;;21.17;20.43;;;21.10;53.00;;;;;;4991981;28;20462;-66
2024/02/26 11:52:13;;;;;;;20.60;19.70;;;21.20;53.10;;;;;;4992280;28;20439;-66
2024/02/26 11:54:45;;;;;;;20.20;19.57;;;21.10;53.00;;;;;;4992298;28;20824;-65
2024/02/26 11:57:25;;;;;;;20.20;19.50;;;21.10;53.00;;;;;;4992202;28;20469;-66
2024/02/26 11:59:52;;;;;;;19.90;19.20;;;21.10;53.00;;;;;;4991923;28;20510;-66
2024/02/26 12:02:58;;;;;;;20.63;19.93;;;21.10;53.00;;;;;;4992234;28;20455;-66
2024/02/26 12:05:26;;;;;;;19.13;18.53;;;21.10;53.00;;;;;;4932096;29;20508;-66
2024/02/26 12:07:55;;;;;;;19.90;19.30;;;21.10;53.00;;;;;;4931847;29;20485;-65
2024/02/26 12:10:26;;;;;;;20.27;19.57;;;21.10;53.00;;;;;;4961696;28;20442;-66
2024/02/26 12:12:59;;;;;;;20.30;19.60;;;21.10;53.00;;;;;;4992104;28;20443;-65
2024/02/26 12:15:32;;;;;;;19.17;18.57;;;21.00;52.90;;;;;;4992076;28;20511;-66
2024/02/26 12:18:02;;;;;;;19.90;19.30;;;21.10;53.00;;;;;;4992056;28;20463;-65
2024/02/26 12:20:29;;;;;;;21.27;20.37;;;21.00;52.90;;;;;;4991515;28;20873;-66
2024/02/26 12:22:56;;;;;;;19.90;19.20;;;21.00;52.90;;;;;;4991945;28;20817;-66
2024/02/26 12:25:25;;;;;;;20.07;19.37;;;21.00;52.90;;;;;;4991898;28;20451;-66
2024/02/26 12:27:52;;;;;;;19.50;18.90;;;21.00;52.90;;;;;;4992225;28;20463;-66
2024/02/26 12:30:19;;;;;;;19.10;18.50;;;21.00;52.90;;;;;;4991535;28;20979;-65